Time;durP1;ratioP1;P1;durP2;ratioP2;P2;SDS_P1;SDS_P2;PMS_P1;PMS_P2;Temp;Humidity;BMP_temperature;BMP_pressure;BME280_temperature;BME280_humidity;BME280_pressure;Samples;Min_cycle;Max_cycle;Signal;HPM_P1;HPM_P2
2024/02/18 00:00:48;;;;;;;0.57;0.50;;;;;;;3.68;66.13;101935.41;5091101;28;20204;-64
2024/02/18 00:03:16;;;;;;;0.97;0.70;;;;;;;3.59;66.39;101932.44;5091959;28;20197;-61
2024/02/18 00:05:44;;;;;;;0.90;0.73;;;;;;;3.59;66.25;101953.69;5086493;28;20547;-63
2024/02/18 00:08:13;;;;;;;1.60;0.50;;;;;;;3.58;65.70;101956.19;5089973;28;20200;-61
2024/02/18 00:10:42;;;;;;;0.70;0.70;;;;;;;3.56;65.89;101948.44;5097589;28;20208;-64
2024/02/18 00:13:10;;;;;;;1.03;0.70;;;;;;;3.62;66.32;101947.88;5091214;28;20294;-61
2024/02/18 00:15:38;;;;;;;0.97;0.60;;;;;;;3.70;65.98;101951.66;5090454;28;20193;-63
2024/02/18 00:18:07;;;;;;;1.13;0.60;;;;;;;3.78;66.07;101949.47;5092539;28;20220;-61
2024/02/18 00:20:35;;;;;;;0.63;0.47;;;;;;;3.84;65.59;101948.06;5089559;28;20223;-61
2024/02/18 00:23:06;;;;;;;0.67;0.60;;;;;;;3.87;65.24;101947.34;5089711;28;20669;-62
2024/02/18 00:25:34;;;;;;;0.50;0.50;;;;;;;3.90;64.76;101946.59;5095387;28;20265;-62
2024/02/18 00:28:04;;;;;;;1.97;0.70;;;;;;;3.90;65.35;101949.16;5091603;28;20189;-61
2024/02/18 00:30:33;;;;;;;1.53;0.50;;;;;;;3.95;65.87;101952.81;5081772;28;20275;-61
2024/02/18 00:33:04;;;;;;;0.90;0.80;;;;;;;3.98;65.20;101952.94;5078008;28;20623;-63
2024/02/18 00:35:32;;;;;;;1.70;0.50;;;;;;;4.01;65.94;101963.25;5079986;28;20202;-62
2024/02/18 00:38:01;;;;;;;0.90;0.60;;;;;;;3.97;65.32;101956.28;5085842;28;20723;-65
2024/02/18 00:40:29;;;;;;;0.67;0.60;;;;;;;3.98;65.35;101958.06;5072545;28;20241;-61
2024/02/18 00:42:57;;;;;;;1.13;0.60;;;;;;;3.88;64.78;101956.75;5093455;28;20197;-62
2024/02/18 00:45:27;;;;;;;0.53;0.53;;;;;;;3.77;63.92;101953.69;5091989;28;20208;-61
2024/02/18 00:47:55;;;;;;;0.67;0.67;;;;;;;3.74;65.86;101966.28;5091338;28;20320;-61
2024/02/18 00:50:23;;;;;;;0.60;0.60;;;;;;;3.75;65.01;101965.47;5091555;28;20375;-60
2024/02/18 00:52:51;;;;;;;0.70;0.70;;;;;;;3.73;65.33;101974.75;5090528;28;20204;-61
2024/02/18 00:55:19;;;;;;;1.00;0.50;;;;;;;3.72;65.92;101979.75;5091877;28;20462;-61
2024/02/18 00:57:48;;;;;;;1.07;0.90;;;;;;;3.73;66.23;101979.84;5080781;28;20571;-61
2024/02/18 01:00:16;;;;;;;1.00;0.90;;;;;;;3.74;66.24;101984.13;5088440;28;20223;-60
2024/02/18 01:02:46;;;;;;;0.70;0.70;;;;;;;3.73;66.49;101992.59;5090501;28;20318;-61
2024/02/18 01:05:14;;;;;;;0.63;0.50;;;;;;;3.73;66.78;101989.16;5091463;28;20785;-61
2024/02/18 01:07:42;;;;;;;0.83;0.67;;;;;;;3.77;65.72;101978.31;5091092;28;20193;-64
2024/02/18 01:10:10;;;;;;;0.70;0.60;;;;;;;3.79;65.23;101985.25;5091047;28;20208;-63
2024/02/18 01:12:39;;;;;;;0.77;0.60;;;;;;;3.82;65.41;101993.00;5089106;28;20240;-61
2024/02/18 01:15:09;;;;;;;0.77;0.63;;;;;;;3.82;65.13;101992.13;5087091;28;20664;-61
2024/02/18 01:17:37;;;;;;;0.90;0.80;;;;;;;3.75;65.22;101990.97;5087145;28;20209;-62
2024/02/18 01:20:08;;;;;;;0.90;0.70;;;;;;;3.73;66.14;102000.25;5089418;28;20206;-61
2024/02/18 01:22:39;;;;;;;0.80;0.70;;;;;;;3.72;66.17;101998.50;5089659;28;20212;-60
2024/02/18 01:25:09;;;;;;;0.87;0.70;;;;;;;3.76;66.25;101991.88;5091053;28;20612;-59
2024/02/18 01:27:37;;;;;;;0.40;0.40;;;;;;;3.80;65.33;101994.63;5090766;28;20268;-60
2024/02/18 01:30:07;;;;;;;0.53;0.53;;;;;;;3.85;66.14;101997.38;5085089;28;20227;-60
2024/02/18 01:32:36;;;;;;;0.80;0.70;;;;;;;3.90;65.72;102006.13;5090813;28;20201;-61
2024/02/18 01:35:05;;;;;;;0.77;0.57;;;;;;;3.87;64.53;102001.78;5084499;28;20677;-62
2024/02/18 01:37:38;;;;;;;0.90;0.80;;;;;;;3.82;64.70;102002.34;5090551;28;20302;-60
2024/02/18 01:40:10;;;;;;;0.57;0.57;;;;;;;3.80;65.70;101998.88;5084542;28;20201;-60
2024/02/18 01:42:39;;;;;;;0.73;0.73;;;;;;;3.75;65.22;102000.31;5090452;28;20208;-60
2024/02/18 01:45:08;;;;;;;1.17;0.70;;;;;;;3.66;64.90;102000.75;5089087;28;20197;-61
2024/02/18 01:47:39;;;;;;;0.70;0.70;;;;;;;3.60;64.85;102011.50;5081914;28;20355;-62
2024/02/18 01:50:09;;;;;;;0.77;0.60;;;;;;;3.57;65.04;102007.94;5095077;28;20200;-60
2024/02/18 01:52:42;;;;;;;0.60;0.60;;;;;;;3.57;65.13;102008.84;5081847;28;20274;-61
2024/02/18 01:55:11;;;;;;;1.13;0.70;;;;;;;3.54;65.02;102012.91;5090403;28;20632;-63
2024/02/18 01:57:42;;;;;;;0.57;0.57;;;;;;;3.54;66.01;102016.31;5079757;28;20221;-63
2024/02/18 02:00:15;;;;;;;0.73;0.50;;;;;;;3.61;65.45;102022.59;5087697;28;20700;-62
2024/02/18 02:02:45;;;;;;;1.20;0.60;;;;;;;3.67;65.82;102015.22;5088720;28;20204;-61
2024/02/18 02:05:18;;;;;;;0.80;0.80;;;;;;;3.73;65.26;102019.75;5086537;28;20727;-63
2024/02/18 02:07:49;;;;;;;0.90;0.60;;;;;;;3.72;65.40;102016.34;5089600;28;20542;-61
2024/02/18 02:10:18;;;;;;;0.77;0.73;;;;;;;3.75;65.52;102011.38;5080883;28;20229;-61
2024/02/18 02:12:47;;;;;;;0.50;0.50;;;;;;;3.74;65.48;102018.97;5093349;28;20327;-60
2024/02/18 02:15:15;;;;;;;1.20;0.90;;;;;;;3.74;65.34;102013.84;5088707;28;20247;-64
2024/02/18 02:17:43;;;;;;;1.93;0.73;;;;;;;3.72;65.29;102025.63;5092709;28;20220;-63
2024/02/18 02:20:11;;;;;;;1.37;0.80;;;;;;;3.67;65.84;102022.88;5094042;28;20196;-61
2024/02/18 02:22:40;;;;;;;0.73;0.60;;;;;;;3.67;66.74;102020.31;5088827;28;20254;-61
2024/02/18 02:25:13;;;;;;;0.60;0.60;;;;;;;3.66;66.27;102015.16;5086868;28;20625;-60
2024/02/18 02:27:43;;;;;;;1.00;0.70;;;;;;;3.64;66.25;102025.28;5093698;28;20197;-59
2024/02/18 02:30:13;;;;;;;0.97;0.70;;;;;;;3.59;66.90;102019.09;5093913;28;20201;-60
2024/02/18 02:32:42;;;;;;;0.87;0.63;;;;;;;3.57;67.45;102013.03;5091178;28;20567;-60
2024/02/18 02:35:10;;;;;;;1.00;0.87;;;;;;;3.62;67.34;102021.78;5092784;28;20196;-60
2024/02/18 02:37:39;;;;;;;0.50;0.50;;;;;;;3.65;66.53;102023.63;5093600;28;20729;-61
2024/02/18 02:40:09;;;;;;;1.23;0.60;;;;;;;3.65;65.31;102028.72;5087961;28;20201;-59
2024/02/18 02:42:37;;;;;;;1.03;0.80;;;;;;;3.67;65.29;102027.97;5093457;28;20201;-61
2024/02/18 02:45:06;;;;;;;0.40;0.40;;;;;;;3.69;65.02;102035.72;5093209;28;20192;-61
2024/02/18 02:47:36;;;;;;;0.80;0.70;;;;;;;3.68;65.16;102028.84;5093436;28;20574;-61
2024/02/18 02:50:05;;;;;;;0.80;0.80;;;;;;;3.65;63.88;102029.59;5090960;28;20196;-61
2024/02/18 02:52:38;;;;;;;1.40;0.73;;;;;;;3.62;64.44;102044.72;5082852;28;20280;-61
2024/02/18 02:55:07;;;;;;;2.83;0.60;;;;;;;3.60;64.79;102042.09;5093321;28;20295;-61
2024/02/18 02:57:35;;;;;;;0.60;0.60;;;;;;;3.63;64.82;102041.38;5090656;28;20200;-62
2024/02/18 03:00:10;;;;;;;0.73;0.60;;;;;;;3.64;64.32;102040.56;5094806;28;20196;-61
2024/02/18 03:02:43;;;;;;;1.20;0.67;;;;;;;3.63;64.01;102038.81;5092320;28;20284;-61
2024/02/18 03:05:11;;;;;;;0.87;0.60;;;;;;;3.65;63.74;102038.91;5093672;28;20282;-60
2024/02/18 03:07:39;;;;;;;0.67;0.60;;;;;;;3.67;64.69;102043.28;5094558;28;20233;-61
2024/02/18 03:10:10;;;;;;;0.50;0.50;;;;;;;3.67;64.31;102045.81;5083098;28;20197;-62
2024/02/18 03:12:40;;;;;;;1.37;0.70;;;;;;;3.67;63.60;102050.06;5089841;28;20232;-60
2024/02/18 03:15:09;;;;;;;1.13;0.70;;;;;;;3.66;64.53;102050.84;5092534;28;20283;-61
2024/02/18 03:17:40;;;;;;;0.53;0.53;;;;;;;3.66;63.78;102061.94;5082240;28;20246;-64
2024/02/18 03:20:11;;;;;;;1.50;0.60;;;;;;;3.65;63.83;102057.63;5091843;28;20657;-60
2024/02/18 03:22:40;;;;;;;1.20;0.57;;;;;;;3.65;64.59;102060.19;5092159;28;20669;-61
2024/02/18 03:25:09;;;;;;;1.60;0.70;;;;;;;3.70;64.02;102055.31;5093052;28;20708;-61
2024/02/18 03:27:40;;;;;;;0.60;0.60;;;;;;;3.70;64.72;102053.63;5089980;28;20200;-60
2024/02/18 03:30:10;;;;;;;0.87;0.70;;;;;;;3.72;64.93;102056.22;5081286;28;20260;-61
2024/02/18 03:32:40;;;;;;;1.20;0.50;;;;;;;3.74;64.16;102059.75;5091518;28;20205;-62
2024/02/18 03:35:10;;;;;;;0.50;0.50;;;;;;;3.68;64.67;102057.75;5092714;28;20232;-60
2024/02/18 03:37:38;;;;;;;0.90;0.90;;;;;;;3.65;64.79;102069.50;5090111;28;20639;-63
2024/02/18 03:40:08;;;;;;;0.63;0.63;;;;;;;3.63;64.32;102060.09;5094924;28;20565;-62
2024/02/18 03:42:36;;;;;;;0.60;0.60;;;;;;;3.65;64.35;102064.41;5092753;28;20579;-61
2024/02/18 03:45:05;;;;;;;0.70;0.60;;;;;;;3.65;64.04;102062.72;5092517;28;20291;-64
2024/02/18 03:47:33;;;;;;;0.50;0.50;;;;;;;3.69;64.66;102064.63;5085902;28;20734;-60
2024/02/18 03:50:01;;;;;;;1.33;0.83;;;;;;;3.70;64.98;102068.91;5092076;28;20197;-59
2024/02/18 03:52:31;;;;;;;0.50;0.50;;;;;;;3.77;65.01;102068.41;5092332;28;20614;-62
2024/02/18 03:54:59;;;;;;;2.00;0.97;;;;;;;3.78;64.01;102077.81;5092113;28;20226;-63
2024/02/18 03:57:27;;;;;;;0.47;0.47;;;;;;;3.79;64.08;102082.13;5079105;28;20200;-60
2024/02/18 03:59:55;;;;;;;0.80;0.63;;;;;;;3.74;63.88;102069.94;5096118;28;20224;-65
2024/02/18 04:02:24;;;;;;;0.40;0.40;;;;;;;3.68;63.16;102080.69;5091517;28;20266;-61
2024/02/18 04:04:52;;;;;;;0.60;0.60;;;;;;;3.66;63.89;102084.88;5092987;28;20277;-63
2024/02/18 04:07:20;;;;;;;0.40;0.40;;;;;;;3.61;62.98;102081.22;5088007;28;20231;-60
2024/02/18 04:09:49;;;;;;;0.50;0.50;;;;;;;3.60;62.61;102082.88;5092011;28;20197;-61
2024/02/18 04:12:18;;;;;;;0.50;0.50;;;;;;;3.55;62.48;102079.22;5091588;28;20268;-60
2024/02/18 04:14:46;;;;;;;0.47;0.47;;;;;;;3.55;62.14;102083.47;5089215;28;20208;-62
2024/02/18 04:17:13;;;;;;;0.63;0.40;;;;;;;3.53;62.51;102083.38;5087017;28;20700;-61
2024/02/18 04:19:43;;;;;;;0.57;0.40;;;;;;;3.52;62.91;102084.19;5090868;28;20335;-61
2024/02/18 04:22:12;;;;;;;0.60;0.50;;;;;;;3.57;63.27;102089.50;5091700;28;20232;-60
2024/02/18 04:24:43;;;;;;;0.73;0.60;;;;;;;3.60;62.68;102087.97;5091905;28;20729;-61
2024/02/18 04:27:13;;;;;;;0.40;0.40;;;;;;;3.62;62.71;102090.63;5089224;28;20666;-62
2024/02/18 04:29:43;;;;;;;0.40;0.40;;;;;;;3.57;63.20;102092.94;5101522;28;20192;-61
2024/02/18 04:32:11;;;;;;;0.57;0.50;;;;;;;3.58;62.80;102098.91;5080002;28;20612;-59
2024/02/18 04:34:39;;;;;;;1.13;0.50;;;;;;;3.58;62.64;102086.16;5077460;28;20634;-63
2024/02/18 04:37:10;;;;;;;0.80;0.53;;;;;;;3.53;61.91;102085.91;5091437;28;20197;-62
2024/02/18 04:39:39;;;;;;;0.77;0.50;;;;;;;3.49;62.29;102090.78;5091232;28;20265;-61
2024/02/18 04:42:09;;;;;;;0.40;0.40;;;;;;;3.44;61.72;102100.75;5091073;28;20204;-60
2024/02/18 04:44:38;;;;;;;0.30;0.30;;;;;;;3.44;62.75;102099.91;5087456;28;20216;-60
2024/02/18 04:47:06;;;;;;;0.70;0.60;;;;;;;3.46;62.54;102093.19;5090478;28;20363;-60
2024/02/18 04:49:34;;;;;;;1.30;0.57;;;;;;;3.47;62.40;102090.72;5078817;28;20205;-64
2024/02/18 04:52:03;;;;;;;1.03;0.57;;;;;;;3.44;62.13;102087.16;5087351;28;20211;-61
2024/02/18 04:54:33;;;;;;;0.43;0.43;;;;;;;3.37;62.26;102091.94;5090446;28;20556;-66
2024/02/18 04:57:05;;;;;;;0.53;0.50;;;;;;;3.31;62.53;102094.16;5083680;28;20272;-61
2024/02/18 04:59:34;;;;;;;0.87;0.47;;;;;;;3.29;62.25;102095.78;5087743;28;20680;-61
2024/02/18 05:02:04;;;;;;;0.97;0.60;;;;;;;3.24;61.85;102092.13;5087395;28;20242;-61
2024/02/18 05:04:31;;;;;;;0.90;0.60;;;;;;;3.22;62.02;102097.94;5098045;28;20210;-60
2024/02/18 05:07:00;;;;;;;0.80;0.50;;;;;;;3.25;62.76;102098.97;5091217;28;20226;-62
2024/02/18 05:09:29;;;;;;;0.60;0.60;;;;;;;3.23;62.61;102095.44;5085457;28;20204;-61
2024/02/18 05:11:57;;;;;;;1.00;0.50;;;;;;;3.24;61.81;102102.31;5085465;28;20259;-61
2024/02/18 05:14:25;;;;;;;0.40;0.40;;;;;;;3.20;62.22;102100.38;5090626;28;20269;-65
2024/02/18 05:16:53;;;;;;;0.60;0.50;;;;;;;3.16;61.58;102098.47;5090937;28;20205;-61
2024/02/18 05:19:22;;;;;;;0.60;0.60;;;;;;;3.13;62.83;102109.41;5088819;28;20221;-61
2024/02/18 05:21:50;;;;;;;0.63;0.50;;;;;;;3.13;62.85;102098.34;5084698;28;20324;-63
2024/02/18 05:24:18;;;;;;;0.50;0.50;;;;;;;3.14;62.88;102107.72;5099031;28;20211;-60
2024/02/18 05:26:46;;;;;;;0.50;0.50;;;;;;;3.14;62.59;102103.50;5089694;28;20208;-60
2024/02/18 05:29:16;;;;;;;0.50;0.47;;;;;;;3.18;62.25;102112.19;5081708;28;20270;-60
2024/02/18 05:31:44;;;;;;;0.40;0.40;;;;;;;3.23;62.86;102110.72;5088101;28;20196;-60
2024/02/18 05:34:11;;;;;;;0.50;0.50;;;;;;;3.25;62.13;102113.38;5091107;28;20668;-61
2024/02/18 05:36:44;;;;;;;0.40;0.40;;;;;;;3.23;61.37;102110.72;5090846;28;20220;-62
2024/02/18 05:39:12;;;;;;;0.40;0.40;;;;;;;3.21;60.66;102114.88;5091044;28;20230;-60
2024/02/18 05:41:41;;;;;;;0.50;0.50;;;;;;;3.22;61.64;102119.19;5090975;28;20649;-61
2024/02/18 05:44:09;;;;;;;1.37;0.40;;;;;;;3.23;61.51;102131.09;5090785;28;20618;-61
2024/02/18 05:46:37;;;;;;;0.93;0.50;;;;;;;3.23;61.61;102145.53;5083267;28;20212;-61
2024/02/18 05:49:05;;;;;;;0.60;0.50;;;;;;;3.18;62.23;102132.56;5091131;28;20200;-61
2024/02/18 05:51:33;;;;;;;0.57;0.40;;;;;;;3.17;61.43;102141.00;5094398;28;20261;-62
2024/02/18 05:54:02;;;;;;;0.60;0.50;;;;;;;3.18;61.51;102145.28;5094587;28;20317;-61
2024/02/18 05:56:30;;;;;;;0.47;0.47;;;;;;;3.15;61.17;102145.13;5094106;28;20649;-61
2024/02/18 05:58:58;;;;;;;0.50;0.30;;;;;;;3.19;61.54;102149.59;5094575;28;20212;-66
2024/02/18 06:01:27;;;;;;;0.90;0.40;;;;;;;3.24;61.96;102158.34;5094093;28;20307;-63
2024/02/18 06:03:55;;;;;;;0.83;0.53;;;;;;;3.30;61.55;102157.78;5091097;28;20235;-61
2024/02/18 06:06:23;;;;;;;0.60;0.60;;;;;;;3.29;60.93;102161.13;5088272;28;20545;-61
2024/02/18 06:08:51;;;;;;;0.50;0.50;;;;;;;3.30;61.76;102162.88;5094092;28;20201;-62
2024/02/18 06:11:21;;;;;;;0.67;0.57;;;;;;;3.29;61.73;102166.22;5094314;28;20244;-60
2024/02/18 06:13:49;;;;;;;1.93;0.43;;;;;;;3.28;61.48;102162.81;5094043;28;20250;-60
2024/02/18 06:16:17;;;;;;;0.50;0.40;;;;;;;3.28;62.15;102170.47;5093887;28;20228;-61
2024/02/18 06:18:45;;;;;;;0.50;0.50;;;;;;;3.23;61.56;102169.31;5093815;28;20357;-63
2024/02/18 06:21:19;;;;;;;3.10;1.47;;;;;;;3.18;62.31;102158.03;5087083;28;20224;-62
2024/02/18 06:23:48;;;;;;;0.67;0.43;;;;;;;3.15;63.12;102160.41;5088319;28;20293;-60
2024/02/18 06:26:17;;;;;;;0.50;0.50;;;;;;;3.16;62.80;102167.25;5089905;28;20204;-61
2024/02/18 06:28:47;;;;;;;0.70;0.63;;;;;;;3.16;63.20;102164.69;5093830;28;20257;-62
2024/02/18 06:31:16;;;;;;;1.70;0.70;;;;;;;3.21;63.86;102168.38;5083812;28;20558;-61
2024/02/18 06:33:45;;;;;;;0.53;0.53;;;;;;;3.22;63.15;102165.03;5079280;28;20206;-60
2024/02/18 06:36:15;;;;;;;0.70;0.60;;;;;;;3.26;63.19;102172.03;5079999;28;20201;-61
2024/02/18 06:38:43;;;;;;;0.40;0.40;;;;;;;3.31;63.71;102170.59;5097887;28;20209;-61
2024/02/18 06:41:12;;;;;;;0.60;0.50;;;;;;;3.46;63.47;102169.63;5095038;28;20727;-61
2024/02/18 06:43:40;;;;;;;2.03;0.43;;;;;;;3.66;63.09;102174.09;5085409;28;20712;-60
2024/02/18 06:46:09;;;;;;;0.73;0.50;;;;;;;3.88;63.40;102164.16;5092122;28;20258;-61
2024/02/18 06:48:40;;;;;;;0.73;0.43;;;;;;;4.09;61.26;102176.25;5088334;28;20216;-60
2024/02/18 06:51:08;;;;;;;0.70;0.40;;;;;;;4.26;61.79;102184.69;5092000;28;20590;-61
2024/02/18 06:53:36;;;;;;;0.57;0.50;;;;;;;4.41;61.30;102180.31;5093531;28;20740;-61
2024/02/18 06:56:05;;;;;;;0.90;0.60;;;;;;;4.59;61.10;102186.31;5086632;28;20307;-61
2024/02/18 06:58:32;;;;;;;0.70;0.50;;;;;;;4.77;60.55;102175.22;5087283;28;20284;-65
2024/02/18 07:01:01;;;;;;;1.27;0.50;;;;;;;4.94;58.38;102178.56;5087336;28;20217;-62
2024/02/18 07:03:30;;;;;;;4.70;0.60;;;;;;;5.07;58.57;102181.72;5085402;28;20414;-60
2024/02/18 07:05:58;;;;;;;0.50;0.50;;;;;;;5.18;57.94;102174.53;5088366;28;20288;-60
2024/02/18 07:08:26;;;;;;;0.87;0.60;;;;;;;5.22;57.83;102173.84;5092146;28;20277;-65
2024/02/18 07:10:54;;;;;;;1.07;0.60;;;;;;;5.05;55.07;102185.03;5088342;28;20566;-61
2024/02/18 07:13:22;;;;;;;0.30;0.30;;;;;;;4.73;55.91;102189.50;5048419;28;20682;-62
2024/02/18 07:15:50;;;;;;;0.33;0.30;;;;;;;4.45;56.52;102194.97;5042528;28;20307;-60
2024/02/18 07:18:21;;;;;;;0.47;0.40;;;;;;;4.21;57.03;102201.47;5050140;28;20716;-61
2024/02/18 07:20:51;;;;;;;0.70;0.30;;;;;;;3.97;57.99;102203.66;5045999;28;20304;-61
2024/02/18 07:23:22;;;;;;;0.50;0.50;;;;;;;3.83;58.58;102193.66;5043370;28;20652;-60
2024/02/18 07:25:50;;;;;;;1.43;0.50;;;;;;;3.81;59.56;102197.81;5044406;28;20225;-62
2024/02/18 07:28:18;;;;;;;0.80;0.60;;;;;;;3.84;60.19;102194.53;5048978;28;20857;-60
2024/02/18 07:30:46;;;;;;;0.83;0.50;;;;;;;3.88;59.75;102202.41;5050307;28;20206;-63
2024/02/18 07:33:14;;;;;;;0.70;0.40;;;;;;;3.90;59.43;102201.63;5053411;28;20903;-60
2024/02/18 07:35:42;;;;;;;1.47;0.50;;;;;;;3.87;59.59;102193.03;5052947;28;20209;-61
2024/02/18 07:38:12;;;;;;;1.03;0.50;;;;;;;3.88;59.31;102193.91;5051080;28;20252;-62
2024/02/18 07:40:40;;;;;;;0.93;0.60;;;;;;;3.87;59.50;102185.38;5052272;28;20226;-61
2024/02/18 07:43:08;;;;;;;1.07;0.70;;;;;;;3.87;59.89;102181.94;5046293;28;20205;-61
2024/02/18 07:45:36;;;;;;;0.70;0.43;;;;;;;3.87;59.63;102184.50;5049158;28;20206;-62
2024/02/18 07:48:04;;;;;;;1.90;1.03;;;;;;;3.85;59.12;102186.97;5054144;28;20890;-63
2024/02/18 07:50:33;;;;;;;0.97;0.97;;;;;;;3.82;59.18;102185.94;5047267;28;20296;-62
2024/02/18 07:53:01;;;;;;;0.57;0.53;;;;;;;3.83;58.69;102193.66;5043122;28;20210;-63
2024/02/18 07:55:31;;;;;;;1.57;0.73;;;;;;;3.80;58.62;102192.63;5044858;28;20272;-63
2024/02/18 07:57:59;;;;;;;0.47;0.47;;;;;;;3.75;58.95;102192.38;5043381;28;20209;-62
2024/02/18 08:00:27;;;;;;;0.67;0.50;;;;;;;3.72;58.69;102202.44;5049710;28;20194;-61
2024/02/18 08:02:55;;;;;;;0.93;0.57;;;;;;;3.71;59.42;102193.03;5047136;28;20205;-63
2024/02/18 08:05:24;;;;;;;1.07;0.73;;;;;;;3.71;59.18;102200.69;5038358;28;20201;-62
2024/02/18 08:07:52;;;;;;;0.77;0.50;;;;;;;3.75;58.85;102204.25;5050659;28;20205;-62
2024/02/18 08:10:20;;;;;;;0.40;0.40;;;;;;;3.76;59.00;102211.13;5044656;28;20197;-62
2024/02/18 08:12:49;;;;;;;0.40;0.40;;;;;;;3.79;59.34;102196.88;5079258;28;20228;-61
2024/02/18 08:15:22;;;;;;;1.63;0.40;;;;;;;3.96;60.09;102205.34;5079994;28;20331;-62
2024/02/18 08:17:50;;;;;;;1.53;0.50;;;;;;;4.18;58.95;102197.09;5088874;28;20235;-62
2024/02/18 08:20:18;;;;;;;1.17;0.83;;;;;;;4.29;58.41;102201.03;5090836;28;20193;-60
2024/02/18 08:22:46;;;;;;;1.17;0.40;;;;;;;4.30;58.35;102204.47;5086019;28;20201;-60
2024/02/18 08:25:14;;;;;;;0.57;0.40;;;;;;;4.31;58.47;102202.00;5081211;28;20200;-61
2024/02/18 08:27:43;;;;;;;0.40;0.40;;;;;;;4.32;58.34;102203.75;5089757;28;20733;-60
2024/02/18 08:30:13;;;;;;;0.80;0.80;;;;;;;4.29;56.64;102200.16;5088644;28;20561;-62
2024/02/18 08:32:41;;;;;;;0.30;0.30;;;;;;;4.27;57.47;102199.19;5090291;28;20200;-61
2024/02/18 08:35:09;;;;;;;0.57;0.50;;;;;;;4.28;56.75;102199.28;5090994;28;20208;-61
2024/02/18 08:37:37;;;;;;;0.30;0.30;;;;;;;4.32;57.21;102185.88;5089467;28;20552;-61
2024/02/18 08:40:07;;;;;;;0.30;0.30;;;;;;;4.42;56.33;102196.50;5091817;28;20254;-61
2024/02/18 08:42:35;;;;;;;0.43;0.30;;;;;;;4.43;55.38;102194.06;5085088;28;20624;-62
2024/02/18 08:45:04;;;;;;;0.20;0.10;;;;;;;4.42;54.91;102191.41;5090471;28;20197;-61
2024/02/18 08:47:33;;;;;;;0.60;0.30;;;;;;;4.41;54.30;102198.19;5086562;28;20334;-61
2024/02/18 08:50:02;;;;;;;0.33;0.30;;;;;;;4.40;54.65;102206.66;5085346;28;20201;-60
2024/02/18 08:52:30;;;;;;;0.30;0.30;;;;;;;4.42;54.96;102199.06;5090225;28;20210;-66
2024/02/18 08:54:58;;;;;;;0.57;0.30;;;;;;;4.45;54.12;102201.78;5087804;28;20657;-60
2024/02/18 08:57:27;;;;;;;0.43;0.43;;;;;;;4.45;53.38;102202.63;5091313;28;20258;-61
2024/02/18 08:59:55;;;;;;;0.33;0.30;;;;;;;4.43;53.95;102199.16;5091584;28;20247;-62
2024/02/18 09:02:23;;;;;;;0.30;0.30;;;;;;;4.47;54.25;102201.06;5091014;28;20217;-62
2024/02/18 09:04:53;;;;;;;1.40;0.40;;;;;;;4.53;53.72;102196.25;5086308;28;20205;-62
2024/02/18 09:07:21;;;;;;;0.53;0.43;;;;;;;4.57;53.43;102197.28;5086295;28;20227;-60
2024/02/18 09:09:49;;;;;;;0.73;0.37;;;;;;;4.60;54.03;102202.50;5090656;28;20228;-67
2024/02/18 09:12:18;;;;;;;0.40;0.40;;;;;;;4.62;53.24;102190.69;5093933;28;20286;-61
2024/02/18 09:14:47;;;;;;;0.70;0.50;;;;;;;4.60;53.86;102198.28;5090597;28;20200;-62
2024/02/18 09:17:17;;;;;;;0.50;0.40;;;;;;;4.51;53.13;102189.31;5090876;28;20254;-62
2024/02/18 09:19:46;;;;;;;0.37;0.37;;;;;;;4.43;54.15;102194.06;5089170;28;20200;-61
2024/02/18 09:22:16;;;;;;;0.30;0.30;;;;;;;4.42;54.37;102196.50;5084454;28;20220;-62
2024/02/18 09:24:44;;;;;;;0.53;0.50;;;;;;;4.46;54.63;102198.44;5086216;28;20621;-62
2024/02/18 09:27:12;;;;;;;0.67;0.40;;;;;;;4.51;54.32;102209.72;5084239;28;20746;-62
2024/02/18 09:29:40;;;;;;;0.87;0.50;;;;;;;4.59;54.18;102210.97;5086880;28;20736;-66
2024/02/18 09:32:08;;;;;;;1.17;0.50;;;;;;;4.60;54.48;102200.84;5081653;28;20684;-60
2024/02/18 09:34:37;;;;;;;3.13;0.47;;;;;;;4.62;54.37;102208.56;5091128;28;20205;-61
2024/02/18 09:37:05;;;;;;;0.63;0.43;;;;;;;4.69;54.35;102207.19;5092117;28;20201;-65
2024/02/18 09:39:35;;;;;;;0.40;0.40;;;;;;;4.75;54.85;102208.34;5087127;28;20192;-61
2024/02/18 09:42:08;;;;;;;2.30;0.53;;;;;;;4.85;54.77;102195.19;5076575;28;20228;-63
2024/02/18 09:44:40;;;;;;;0.23;0.20;;;;;;;4.93;54.35;102187.00;5086478;28;20573;-61
2024/02/18 09:47:12;;;;;;;0.40;0.30;;;;;;;4.92;53.38;102180.16;5086488;28;20295;-61
2024/02/18 09:49:41;;;;;;;0.50;0.50;;;;;;;4.87;53.54;102186.72;5087375;28;20250;-62
2024/02/18 09:52:12;;;;;;;0.30;0.30;;;;;;;4.80;52.54;102176.22;5084098;28;20668;-60
2024/02/18 09:54:42;;;;;;;0.50;0.50;;;;;;;4.75;53.04;102180.25;5086947;28;20208;-60
2024/02/18 09:57:10;;;;;;;0.50;0.43;;;;;;;4.76;52.97;102174.34;5088704;28;20220;-62
2024/02/18 09:59:38;;;;;;;0.50;0.50;;;;;;;4.81;53.51;102175.41;5089338;28;20211;-61
2024/02/18 10:02:07;;;;;;;1.07;0.53;;;;;;;4.91;54.04;102174.16;5090317;28;20227;-63
2024/02/18 10:04:35;;;;;;;0.73;0.57;;;;;;;5.03;54.01;102176.41;5090505;28;20665;-62
2024/02/18 10:07:04;;;;;;;1.33;0.63;;;;;;;5.10;53.82;102178.44;5085641;28;20200;-62
2024/02/18 10:09:33;;;;;;;0.70;0.50;;;;;;;5.16;53.82;102175.28;5090090;28;20658;-62
2024/02/18 10:12:03;;;;;;;0.87;0.60;;;;;;;5.16;52.81;102175.28;5087976;28;20720;-62
2024/02/18 10:14:33;;;;;;;0.50;0.50;;;;;;;5.05;52.38;102168.00;5086923;28;20196;-61
2024/02/18 10:17:01;;;;;;;0.40;0.40;;;;;;;4.94;52.35;102170.88;5088054;28;20206;-61
2024/02/18 10:19:29;;;;;;;0.60;0.60;;;;;;;4.94;53.35;102171.75;5085865;28;20212;-61
2024/02/18 10:22:00;;;;;;;1.57;0.80;;;;;;;4.96;53.09;102171.81;5089085;28;20266;-61
2024/02/18 10:24:28;;;;;;;0.60;0.60;;;;;;;5.01;53.31;102168.69;5087933;28;20238;-61
2024/02/18 10:26:56;;;;;;;0.40;0.40;;;;;;;5.14;53.57;102162.41;5090779;28;20646;-61
2024/02/18 10:29:26;;;;;;;0.80;0.50;;;;;;;5.23;52.52;102160.28;5087573;28;20204;-64
2024/02/18 10:31:55;;;;;;;1.93;0.77;;;;;;;5.29;52.85;102146.88;5091001;28;20205;-62
2024/02/18 10:34:23;;;;;;;0.73;0.50;;;;;;;5.32;52.56;102149.59;5093940;28;20208;-63
2024/02/18 10:37:00;;;;;;;0.73;0.60;;;;;;;5.29;52.70;102140.09;5094228;28;20677;-63
2024/02/18 10:39:32;;;;;;;0.73;0.60;;;;;;;5.30;52.04;102144.41;5094052;28;20632;-62
2024/02/18 10:42:06;;;;;;;1.00;0.40;;;;;;;5.31;52.25;102141.03;5087829;28;20653;-63
2024/02/18 10:44:40;;;;;;;0.60;0.47;;;;;;;5.28;52.67;102134.94;5088451;28;20303;-63
2024/02/18 10:47:10;;;;;;;2.50;1.53;;;;;;;5.36;52.89;102138.69;5084293;28;20204;-62
2024/02/18 10:49:40;;;;;;;0.50;0.50;;;;;;;5.48;52.40;102135.78;5090094;28;20662;-62
2024/02/18 10:52:15;;;;;;;0.50;0.50;;;;;;;5.65;52.71;102132.25;5095874;28;20197;-62
2024/02/18 10:54:49;;;;;;;0.50;0.50;;;;;;;5.81;51.57;102128.63;5092618;28;20573;-60
2024/02/18 10:57:23;;;;;;;1.13;0.40;;;;;;;5.88;51.30;102119.53;5088960;28;20228;-63
2024/02/18 10:59:57;;;;;;;1.20;0.50;;;;;;;5.99;51.35;102123.44;5094358;28;20200;-63
2024/02/18 11:02:33;;;;;;;1.03;0.63;;;;;;;6.05;48.54;102108.34;5091171;28;20280;-62
2024/02/18 11:05:01;;;;;;;0.80;0.60;;;;;;;6.10;49.00;102111.94;5096680;28;20196;-62
2024/02/18 11:07:43;;;;;;;0.63;0.63;;;;;;;6.09;49.31;102099.09;5089740;28;20250;-65
2024/02/18 11:10:11;;;;;;;1.33;0.47;;;;;;;6.12;49.75;102107.78;5094312;28;20204;-61
2024/02/18 11:12:44;;;;;;;0.67;0.50;;;;;;;6.09;48.24;102099.97;5093120;28;20232;-62
2024/02/18 11:15:14;;;;;;;0.83;0.50;;;;;;;5.98;48.72;102098.69;5093372;28;20200;-62
2024/02/18 11:17:43;;;;;;;0.40;0.40;;;;;;;5.91;49.48;102099.19;5091226;28;20208;-62
2024/02/18 11:20:14;;;;;;;0.90;0.70;;;;;;;5.73;47.80;102089.97;5094393;28;20209;-63
2024/02/18 11:22:43;;;;;;;0.40;0.40;;;;;;;5.60;48.47;102090.28;5083716;28;20738;-61
2024/02/18 11:25:17;;;;;;;0.70;0.60;;;;;;;5.49;49.08;102087.28;5090251;28;20196;-64
2024/02/18 11:27:46;;;;;;;0.50;0.50;;;;;;;5.50;49.27;102081.34;5089563;28;20205;-63
2024/02/18 11:30:17;;;;;;;1.30;0.60;;;;;;;5.55;48.94;102073.84;5090398;28;20621;-63
2024/02/18 11:32:45;;;;;;;1.43;0.50;;;;;;;5.66;49.34;102075.16;5089642;28;20296;-61
2024/02/18 11:35:17;;;;;;;0.73;0.50;;;;;;;5.69;48.57;102071.88;5092840;28;20236;-62
2024/02/18 11:37:45;;;;;;;0.70;0.70;;;;;;;5.72;49.08;102072.00;5093317;28;20200;-61
2024/02/18 11:40:17;;;;;;;0.40;0.40;;;;;;;5.84;48.97;102064.81;5093059;28;20208;-61
2024/02/18 11:42:47;;;;;;;1.20;0.40;;;;;;;6.03;49.37;102053.66;5090573;28;20205;-62